createdAt,value
2022-10-21T00:02:19.755Z,7.68
2022-10-21T00:07:22.405Z,9.50
2022-10-21T00:12:24.185Z,9.40
2022-10-21T00:17:26.204Z,8.73
2022-10-21T00:22:28.038Z,10.32
2022-10-21T00:27:30.535Z,10.60
2022-10-21T00:32:32.195Z,10.37
2022-10-21T00:37:33.927Z,9.68
2022-10-21T00:42:43.727Z,9.85
2022-10-21T00:48:04.487Z,10.35
2022-10-21T00:53:09.380Z,9.88
2022-10-21T00:58:11.757Z,10.18
2022-10-21T01:03:13.895Z,10.70
2022-10-21T01:08:15.836Z,9.03
2022-10-21T01:13:49.718Z,9.23
2022-10-21T01:19:01.325Z,8.20
2022-10-21T01:24:21.793Z,8.88
2022-10-21T01:29:53.527Z,8.30
2022-10-21T01:35:28.226Z,8.38
2022-10-21T01:40:44.430Z,8.50
2022-10-21T01:45:51.922Z,8.13
2022-10-21T01:50:58.916Z,10.45
2022-10-21T01:56:04.070Z,11.55
2022-10-21T02:01:09.008Z,11.68
2022-10-21T02:06:13.964Z,11.55
2022-10-21T02:11:18.072Z,12.18
2022-10-21T02:16:25.053Z,10.73
2022-10-21T02:21:31.348Z,11.70
2022-10-21T02:26:33.279Z,8.43
2022-10-21T02:31:42.311Z,8.47
2022-10-21T02:36:56.400Z,9.10
2022-10-21T02:42:01.397Z,9.07
2022-10-21T02:47:04.236Z,8.23
2022-10-21T02:52:06.202Z,8.73
2022-10-21T02:57:07.966Z,9.97
2022-10-21T03:02:10.454Z,9.93
2022-10-21T03:12:14.364Z,10.30
2022-10-21T03:17:16.013Z,9.45
2022-10-21T03:22:17.746Z,8.77
2022-10-21T03:27:19.433Z,8.52
2022-10-21T03:32:21.266Z,8.68
2022-10-21T03:37:23.083Z,9.68
2022-10-21T03:42:24.795Z,9.13
2022-10-21T03:47:26.471Z,11.32
2022-10-21T03:52:28.338Z,10.73
2022-10-21T03:57:30.003Z,11.43
2022-10-21T04:02:31.790Z,10.80
2022-10-21T04:07:33.459Z,9.88
2022-10-21T04:12:35.337Z,10.75
2022-10-21T04:17:37.126Z,10.20
2022-10-21T04:22:39.211Z,12.52
2022-10-21T04:27:41.075Z,11.27
2022-10-21T04:32:43.106Z,11.18
2022-10-21T04:37:45.263Z,12.63
2022-10-21T04:42:50.768Z,10.57
2022-10-21T04:47:52.455Z,12.27
2022-10-21T04:52:54.278Z,11.90
2022-10-21T04:57:56.058Z,13.23
2022-10-21T05:02:58.374Z,12.60
2022-10-21T05:08:00.157Z,13.13
2022-10-21T05:13:02.068Z,11.17
2022-10-21T05:18:04.387Z,12.27
2022-10-21T05:23:06.164Z,12.60
2022-10-21T05:28:08.021Z,12.00
2022-10-21T05:33:10.560Z,12.02
2022-10-21T05:38:12.329Z,12.18
2022-10-21T05:43:14.023Z,11.93
2022-10-21T05:48:18.208Z,10.60
2022-10-21T05:53:20.774Z,11.05
2022-10-21T05:58:23.697Z,12.02
2022-10-21T06:03:30.910Z,11.88
2022-10-21T06:08:35.229Z,13.05
2022-10-21T06:13:38.057Z,10.93
2022-10-21T06:23:41.979Z,13.00
2022-10-21T06:28:44.542Z,12.95
2022-10-21T06:33:46.288Z,13.13
2022-10-21T06:38:48.034Z,14.48
2022-10-21T06:43:49.740Z,14.82
2022-10-21T06:48:51.531Z,14.60
2022-10-21T06:53:56.759Z,7.95
2022-10-21T06:58:58.693Z,12.32
2022-10-21T07:04:00.617Z,12.77
2022-10-21T07:09:03.860Z,14.15
2022-10-21T07:14:05.737Z,14.55
2022-10-21T07:19:08.595Z,15.77
2022-10-21T07:29:12.136Z,16.27
2022-10-21T07:34:13.946Z,16.55
2022-10-21T07:39:17.465Z,15.27
2022-10-21T07:44:21.449Z,15.35
2022-10-21T07:49:24.158Z,15.43
2022-10-21T07:54:25.849Z,15.35
2022-10-21T07:59:27.924Z,14.27
2022-10-21T08:04:33.170Z,15.33
2022-10-21T08:09:34.825Z,14.57
2022-10-21T08:14:36.517Z,14.82
2022-10-21T08:19:38.255Z,13.93
2022-10-21T08:24:42.288Z,13.95
2022-10-21T08:29:44.217Z,13.88
2022-10-21T08:34:46.007Z,12.88
2022-10-21T08:39:47.677Z,13.75
2022-10-21T08:44:52.102Z,13.32
2022-10-21T08:50:02.234Z,12.13
2022-10-21T08:55:07.848Z,12.15
2022-10-21T09:00:17.366Z,11.90
2022-10-21T09:05:58.638Z,11.80
2022-10-21T09:11:30.588Z,11.60
2022-10-21T09:16:49.487Z,12.07
2022-10-21T09:22:16.180Z,11.38
2022-10-21T09:27:31.899Z,11.35
2022-10-21T09:32:40.111Z,11.55
2022-10-21T09:37:49.798Z,12.68
2022-10-21T09:42:58.854Z,12.88
2022-10-21T09:48:13.806Z,12.57
2022-10-21T09:53:22.711Z,12.18
2022-10-21T09:58:48.212Z,11.15
2022-10-21T10:03:52.350Z,11.75
2022-10-21T10:09:28.190Z,12.00
2022-10-21T10:14:42.025Z,11.68
2022-10-21T10:19:43.813Z,12.07
2022-10-21T10:24:45.536Z,13.20
2022-10-21T10:29:56.007Z,14.32
2022-10-21T10:35:03.109Z,14.77
2022-10-21T10:40:09.075Z,14.38
2022-10-21T10:45:19.690Z,13.52
2022-10-21T10:50:41.044Z,14.45
2022-10-21T10:55:45.902Z,13.77
2022-10-21T11:00:51.616Z,13.48
2022-10-21T11:06:01.262Z,12.95
2022-10-21T11:11:06.025Z,12.25
2022-10-21T11:16:45.074Z,11.35
2022-10-21T11:22:38.088Z,10.52
2022-10-21T11:27:45.071Z,11.38
2022-10-21T11:32:49.537Z,11.00
2022-10-21T11:38:01.812Z,13.57
2022-10-21T11:43:52.875Z,13.00
2022-10-21T11:49:08.732Z,13.45
2022-10-21T11:54:25.207Z,13.98
2022-10-21T12:00:00.281Z,14.05
2022-10-21T12:05:37.000Z,14.10
2022-10-21T12:11:00.976Z,13.20
2022-10-21T12:16:08.549Z,13.30
2022-10-21T12:21:16.402Z,11.40
2022-10-21T12:32:01.790Z,11.90
2022-10-21T12:42:06.383Z,11.50
2022-10-21T12:47:31.991Z,11.25
2022-10-21T12:52:38.330Z,10.23
2022-10-21T12:57:41.769Z,10.07
2022-10-21T13:03:03.330Z,10.65
2022-10-21T13:08:27.126Z,11.52
2022-10-21T13:13:36.280Z,10.52
2022-10-21T13:18:50.227Z,10.23
2022-10-21T13:23:54.111Z,9.15
2022-10-21T13:28:59.581Z,8.18
2022-10-21T13:34:01.552Z,7.72
2022-10-21T13:39:08.339Z,7.78
2022-10-21T13:44:28.085Z,7.43
2022-10-21T13:49:32.981Z,7.82
2022-10-21T13:54:35.203Z,8.38
2022-10-21T13:59:36.973Z,9.00
2022-10-21T14:04:40.192Z,8.03
2022-10-21T14:09:45.837Z,7.97
2022-10-21T14:14:47.815Z,8.40
2022-10-21T14:20:07.997Z,7.53
2022-10-21T14:25:15.794Z,6.47
2022-10-21T14:30:23.267Z,5.53
2022-10-21T14:35:29.066Z,4.82
2022-10-21T14:40:41.562Z,5.70
2022-10-21T14:46:06.213Z,6.57
2022-10-21T14:51:16.557Z,6.75
2022-10-21T14:56:34.238Z,6.45
2022-10-21T15:01:43.015Z,6.50
2022-10-21T15:06:59.810Z,6.32
2022-10-21T15:12:18.047Z,6.47
2022-10-21T15:17:22.147Z,5.95
2022-10-21T15:22:31.098Z,5.00
2022-10-21T15:27:42.293Z,5.35
2022-10-21T15:32:45.239Z,5.65
2022-10-21T15:37:51.107Z,5.25
2022-10-21T15:42:52.922Z,4.97
2022-10-21T15:47:55.690Z,5.13
2022-10-21T15:52:57.484Z,5.30
2022-10-21T15:57:59.801Z,4.80
2022-10-21T16:03:01.647Z,4.35
2022-10-21T16:08:04.104Z,3.60
2022-10-21T16:13:06.087Z,5.05
2022-10-21T16:18:13.309Z,5.10
2022-10-21T16:23:15.037Z,4.95
2022-10-21T16:28:16.803Z,3.88
2022-10-21T16:33:18.505Z,3.13
2022-10-21T16:43:26.915Z,2.90
2022-10-21T16:48:28.581Z,3.25
2022-10-21T16:53:30.354Z,3.40
2022-10-21T16:58:32.307Z,3.10
2022-10-21T17:03:34.819Z,3.80
2022-10-21T17:08:37.281Z,3.15
2022-10-21T17:13:38.999Z,3.85
2022-10-21T17:18:41.589Z,4.32
2022-10-21T17:28:45.614Z,3.22
2022-10-21T17:33:49.196Z,2.97
2022-10-21T17:38:51.141Z,2.97
2022-10-21T17:43:52.905Z,3.23
2022-10-21T17:48:56.491Z,6.53
2022-10-21T17:53:59.212Z,8.38
2022-10-21T17:59:01.696Z,5.65
2022-10-21T18:04:03.469Z,4.23
2022-10-21T18:09:06.755Z,3.87
2022-10-21T18:14:08.911Z,3.83
2022-10-21T18:19:12.022Z,3.83
2022-10-21T18:24:13.828Z,3.70
2022-10-21T18:29:16.331Z,6.22
2022-10-21T18:34:18.675Z,40.53
2022-10-21T18:39:20.418Z,16.52
2022-10-21T18:44:22.101Z,3.92
2022-10-21T18:49:24.122Z,5.47
2022-10-21T18:54:25.781Z,4.00
2022-10-21T18:59:27.601Z,6.72
2022-10-21T19:04:29.631Z,4.85
2022-10-21T19:09:31.455Z,3.80
2022-10-21T19:14:33.911Z,3.50
2022-10-21T19:19:39.342Z,4.07
2022-10-21T19:24:41.374Z,3.85
2022-10-21T19:29:43.457Z,3.80
2022-10-21T19:34:45.283Z,5.25
2022-10-21T19:39:47.057Z,5.25
2022-10-21T19:44:48.834Z,4.68
2022-10-21T19:49:50.621Z,3.92
2022-10-21T19:54:52.402Z,3.70
2022-10-21T19:59:54.529Z,3.87
2022-10-21T20:04:56.762Z,4.13
2022-10-21T20:10:45.802Z,3.83
2022-10-21T20:15:48.030Z,3.70
2022-10-21T20:20:49.888Z,4.70
2022-10-21T20:25:56.945Z,3.80
2022-10-21T20:31:01.004Z,4.70
2022-10-21T20:36:14.975Z,3.90
2022-10-21T20:41:26.057Z,4.45
2022-10-21T20:46:34.996Z,4.00
2022-10-21T20:51:38.901Z,4.40
2022-10-21T20:56:41.189Z,3.95
2022-10-21T21:01:46.130Z,4.35
2022-10-21T21:06:49.614Z,4.10
2022-10-21T21:11:51.709Z,3.83
2022-10-21T21:16:54.698Z,4.40
2022-10-21T21:21:56.385Z,4.32
2022-10-21T21:26:58.366Z,4.00
2022-10-21T21:32:00.204Z,3.58
2022-10-21T21:37:04.144Z,3.80
2022-10-21T21:42:05.994Z,3.80
2022-10-21T21:47:07.773Z,3.20
2022-10-21T21:52:09.417Z,3.50
2022-10-21T21:57:26.931Z,3.45
2022-10-21T22:02:30.045Z,3.60
2022-10-21T22:07:33.002Z,4.07
2022-10-21T22:12:34.655Z,3.60
2022-10-21T22:17:36.643Z,3.33
2022-10-21T22:22:38.526Z,3.13
2022-10-21T22:27:40.791Z,3.30
2022-10-21T22:32:42.825Z,3.10
2022-10-21T22:37:44.715Z,3.03
2022-10-21T22:42:46.402Z,2.80
2022-10-21T22:47:48.085Z,2.85
2022-10-21T22:52:49.845Z,3.53
2022-10-21T22:57:51.693Z,4.00
2022-10-21T23:02:53.386Z,2.95
2022-10-21T23:07:55.042Z,3.22
2022-10-21T23:12:56.711Z,3.38
2022-10-21T23:17:58.388Z,3.58
2022-10-21T23:23:00.121Z,3.33
2022-10-21T23:28:02.221Z,3.17
2022-10-21T23:33:04.481Z,3.20
2022-10-21T23:38:06.638Z,3.80
2022-10-21T23:43:08.395Z,3.30
2022-10-21T23:48:10.340Z,3.40
2022-10-21T23:53:12.046Z,3.97
2022-10-21T23:58:13.711Z,3.53
